This is the latest recevied weather packets stored in our database for station/object AG1T-1. If no packets are shown the sender has not sent any weather packets the latest 10 day(s).
| Time | Temp. | Humidity | Pressure | Rain* | Wind** | Luminosity | Snow |
|---|---|---|---|---|---|---|---|
| 1777476003 | 7.22° C | 68% | 1024.5 hPa | 0.76 mm | - | 476 W/m² | - |
| 1777475403 | 6.67° C | 71% | 1024.5 hPa | 0.76 mm | - | 445 W/m² | - |
| 1777474803 | 6.11° C | 71% | 1024.6 hPa | 0.76 mm | - | 411 W/m² | - |
| 1777474203 | 6.11° C | 71% | 1024.6 hPa | 0.76 mm | - | 380 W/m² | - |
| 1777473603 | 5.56° C | 75% | 1024.7 hPa | 0.76 mm | - | 352 W/m² | - |
| 1777473003 | 5° C | 76% | 1024.7 hPa | 0.51 mm | - | 318 W/m² | - |
| 1777472403 | 4.44° C | 79% | 1024.7 hPa | 0.25 mm | - | 283 W/m² | - |
| 1777471803 | 3.89° C | 79% | 1024.6 hPa | 0.25 mm | - | 251 W/m² | - |
| 1777471203 | 3.33° C | 81% | 1024.6 hPa | 0.25 mm | - | 218 W/m² | - |
| 1777470603 | 2.78° C | 80% | 1024.6 hPa | 0 mm | - | 185 W/m² | - |
| 1777470003 | 2.22° C | 84% | 1024.7 hPa | 0 mm | - | 153 W/m² | - |
| 1777469403 | 1.11° C | 86% | 1024.7 hPa | 0 mm | - | 86 W/m² | - |
| 1777468803 | 0.56° C | 86% | 1024.7 hPa | 0 mm | - | 91 W/m² | - |
| 1777468203 | 0° C | 84% | 1024.7 hPa | 0 mm | - | 30 W/m² | - |
| 1777467603 | 0° C | 84% | 1024.5 hPa | 0 mm | - | 21 W/m² | - |
| 1777467003 | 0.56° C | 84% | 1024.5 hPa | 0 mm | - | 16 W/m² | - |
| 1777466403 | 0° C | 84% | 1024.4 hPa | 0 mm | - | 11 W/m² | - |
| 1777465803 | 0° C | 84% | 1024.4 hPa | 0 mm | - | 5 W/m² | - |
| 1777465203 | 0° C | 84% | 1024.3 hPa | 0 mm | - | 0 W/m² | - |
| 1777464603 | 0° C | 85% | 1024.3 hPa | 0 mm | - | 0 W/m² | - |
| 1777464003 | 0° C | 85% | 1024.2 hPa | 0 mm | - | 0 W/m² | - |
| 1777463403 | 0° C | 84% | 1024.1 hPa | 0 mm | - | 0 W/m² | - |
| 1777462803 | 0° C | 84% | 1024 hPa | 0 mm | - | 0 W/m² | - |
| 1777462203 | 0° C | 84% | 1024.1 hPa | 0 mm | - | 0 W/m² | - |
| 1777461603 | 0.56° C | 83% | 1024 hPa | 0 mm | - | 0 W/m² | - |
* Rain latest hour (hover to see other rain measurements)
** Current wind speed in m/s (hover to see current wind gust speed)